Time;durP1;ratioP1;P1;durP2;ratioP2;P2;SDS_P1;SDS_P2;PMS_P1;PMS_P2;Temp;Humidity;BMP_temperature;BMP_pressure;BME280_temperature;BME280_humidity;BME280_pressure;Samples;Min_cycle;Max_cycle;Signal;HPM_P1;HPM_P2
2021/07/25 00:01:44;;;;;;;19.43;10.30;;;19.80;98.80;;;;;;4978039;28;20190;-75
2021/07/25 00:04:09;;;;;;;18.67;10.40;;;19.90;98.90;;;;;;4982806;28;20221;-74
2021/07/25 00:06:35;;;;;;;17.20;9.90;;;19.80;98.80;;;;;;4988317;28;20263;-75
2021/07/25 00:09:01;;;;;;;18.80;10.90;;;19.80;98.90;;;;;;4985962;28;20191;-74
2021/07/25 00:11:27;;;;;;;18.43;10.90;;;19.80;99.10;;;;;;4980926;28;20183;-74
2021/07/25 00:13:56;;;;;;;18.80;11.03;;;19.80;99.20;;;;;;4982840;28;20417;-75
2021/07/25 00:16:21;;;;;;;17.90;9.60;;;19.80;99.20;;;;;;4985572;28;20257;-75
2021/07/25 00:18:47;;;;;;;15.77;9.80;;;19.80;99.30;;;;;;4982598;28;20978;-75
2021/07/25 00:21:13;;;;;;;21.27;11.20;;;19.90;99.30;;;;;;4980437;28;20246;-74
2021/07/25 00:23:44;;;;;;;18.17;10.70;;;19.80;99.10;;;;;;4994550;28;20187;-74
2021/07/25 00:26:13;;;;;;;17.93;10.80;;;19.80;99.10;;;;;;4980910;28;20474;-74
2021/07/25 00:28:40;;;;;;;19.43;10.63;;;19.90;99.40;;;;;;4987348;28;20492;-74
2021/07/25 00:31:08;;;;;;;21.93;11.50;;;20.00;99.40;;;;;;4980871;28;20968;-75
2021/07/25 00:33:37;;;;;;;17.03;10.50;;;20.00;99.50;;;;;;4988480;28;20437;-74
2021/07/25 00:36:06;;;;;;;17.20;10.90;;;20.00;99.60;;;;;;4987205;28;20967;-74
2021/07/25 00:38:32;;;;;;;19.10;10.10;;;20.10;99.50;;;;;;4985858;28;20485;-75
2021/07/25 00:41:13;;;;;;;18.77;10.77;;;20.10;99.40;;;;;;4991438;28;20426;-76
2021/07/25 00:43:40;;;;;;;24.27;11.77;;;20.10;99.20;;;;;;4990071;28;20498;-74
2021/07/25 00:46:06;;;;;;;19.10;10.03;;;20.10;98.90;;;;;;4991397;28;20441;-74
2021/07/25 00:48:32;;;;;;;19.73;11.63;;;20.00;98.60;;;;;;4987626;28;20427;-75
2021/07/25 00:50:58;;;;;;;20.67;9.90;;;20.00;98.60;;;;;;4983138;28;20661;-74
2021/07/25 00:53:24;;;;;;;19.33;10.20;;;20.00;98.60;;;;;;4990404;28;20463;-75
2021/07/25 00:55:51;;;;;;;17.60;10.37;;;20.00;98.50;;;;;;4986553;28;20425;-74
2021/07/25 00:58:17;;;;;;;16.60;10.33;;;20.00;98.40;;;;;;4989094;28;20541;-75
2021/07/25 01:00:44;;;;;;;19.30;10.73;;;20.00;98.70;;;;;;4991329;28;20513;-75
2021/07/25 01:03:19;;;;;;;20.70;10.07;;;20.00;98.60;;;;;;4990787;28;20601;-74
2021/07/25 01:05:58;;;;;;;17.40;11.23;;;20.00;98.60;;;;;;4990979;28;20476;-74
2021/07/25 01:08:33;;;;;;;21.33;10.53;;;20.00;98.70;;;;;;4989890;28;20504;-76
2021/07/25 01:11:01;;;;;;;18.47;9.70;;;20.10;99.10;;;;;;4991378;28;21069;-75
2021/07/25 01:13:31;;;;;;;17.87;10.57;;;20.10;99.10;;;;;;4991363;28;20439;-76
2021/07/25 01:16:00;;;;;;;17.67;9.80;;;20.20;99.00;;;;;;4991708;28;20430;-75
2021/07/25 01:18:26;;;;;;;17.97;10.20;;;20.10;98.90;;;;;;4991257;28;20413;-75
2021/07/25 01:20:54;;;;;;;19.57;11.00;;;20.20;98.90;;;;;;4988817;28;20441;-77
2021/07/25 01:23:24;;;;;;;18.27;10.03;;;20.10;98.70;;;;;;4992034;28;20309;-75
2021/07/25 01:25:57;;;;;;;17.00;9.57;;;20.10;98.50;;;;;;4991840;28;20429;-75
2021/07/25 01:28:27;;;;;;;17.90;9.10;;;20.10;98.20;;;;;;4991917;28;20429;-75
2021/07/25 01:30:55;;;;;;;16.60;9.93;;;20.10;98.10;;;;;;4991816;28;20933;-76
2021/07/25 01:33:26;;;;;;;14.40;8.63;;;20.10;98.00;;;;;;4989243;28;20431;-76
2021/07/25 01:35:53;;;;;;;15.97;8.70;;;20.00;98.00;;;;;;4985813;28;20431;-75
2021/07/25 01:38:19;;;;;;;19.17;9.13;;;20.00;97.60;;;;;;4993025;28;20418;-76
2021/07/25 01:41:20;;;;;;;16.20;9.30;;;19.90;97.10;;;;;;4994985;28;20936;-76
2021/07/25 01:43:49;;;;;;;15.00;8.73;;;19.90;97.00;;;;;;4999679;28;20452;-75
2021/07/25 01:46:15;;;;;;;19.90;10.07;;;19.90;97.10;;;;;;4996841;28;20872;-76
2021/07/25 01:48:42;;;;;;;14.00;9.40;;;19.90;97.20;;;;;;4998544;28;20456;-75
2021/07/25 01:51:08;;;;;;;16.97;9.77;;;19.80;97.10;;;;;;4976196;28;20465;-76
2021/07/25 01:53:34;;;;;;;20.27;10.20;;;19.70;97.50;;;;;;4999150;28;20432;-75
2021/07/25 01:56:00;;;;;;;16.20;9.77;;;19.70;97.70;;;;;;4993192;28;20449;-74
2021/07/25 01:58:26;;;;;;;20.63;11.57;;;19.70;97.90;;;;;;4992726;28;20441;-75
2021/07/25 02:00:52;;;;;;;16.00;10.20;;;19.80;98.40;;;;;;4972615;28;20218;-75
2021/07/25 02:03:37;;;;;;;19.67;10.30;;;19.80;98.70;;;;;;4995221;28;20661;-75
2021/07/25 02:06:03;;;;;;;18.80;10.93;;;19.80;98.60;;;;;;4994032;28;20442;-75
2021/07/25 02:08:28;;;;;;;19.50;10.53;;;19.80;98.40;;;;;;4976314;28;21258;-75
2021/07/25 02:10:54;;;;;;;16.83;10.53;;;19.70;98.20;;;;;;4994433;28;20503;-76
2021/07/25 02:13:22;;;;;;;20.10;10.50;;;19.70;98.50;;;;;;4991599;28;20639;-75
2021/07/25 02:15:48;;;;;;;19.40;11.03;;;19.80;98.50;;;;;;4995176;28;20195;-76
2021/07/25 02:18:14;;;;;;;17.30;10.53;;;19.60;98.50;;;;;;4992050;28;20919;-76
2021/07/25 02:20:43;;;;;;;19.33;10.10;;;19.50;98.70;;;;;;4994788;28;20419;-75
2021/07/25 02:23:09;;;;;;;16.43;9.90;;;19.50;99.00;;;;;;4993173;28;20460;-75
2021/07/25 02:25:37;;;;;;;20.47;10.80;;;19.50;99.00;;;;;;4994228;28;20816;-76
2021/07/25 02:28:04;;;;;;;18.30;10.10;;;19.50;98.50;;;;;;4994795;28;20421;-75
2021/07/25 02:30:30;;;;;;;18.30;10.20;;;19.60;98.30;;;;;;4994349;28;20465;-74
2021/07/25 02:32:56;;;;;;;17.10;10.30;;;19.60;98.50;;;;;;4992494;28;20426;-75
2021/07/25 02:35:21;;;;;;;20.83;11.27;;;19.60;98.70;;;;;;4994154;28;21438;-75
2021/07/25 02:37:47;;;;;;;24.47;11.67;;;19.70;98.90;;;;;;4993566;28;20669;-75
2021/07/25 02:40:13;;;;;;;21.67;11.83;;;19.70;99.00;;;;;;4993190;28;20178;-77
2021/07/25 02:42:39;;;;;;;18.17;10.33;;;19.70;98.80;;;;;;4994605;28;20186;-76
2021/07/25 02:45:05;;;;;;;18.20;10.57;;;19.70;98.90;;;;;;4991855;28;20273;-75
2021/07/25 02:47:31;;;;;;;19.57;11.30;;;19.70;99.00;;;;;;4998452;28;20253;-75
2021/07/25 02:49:56;;;;;;;23.10;11.50;;;19.70;99.00;;;;;;4993877;28;20477;-76
2021/07/25 02:52:22;;;;;;;19.50;10.90;;;19.70;99.00;;;;;;4994280;28;20188;-76
2021/07/25 02:54:48;;;;;;;18.77;11.23;;;19.70;99.00;;;;;;4993998;28;20182;-75
2021/07/25 02:57:13;;;;;;;22.73;12.50;;;19.70;99.30;;;;;;4994007;28;20861;-74
2021/07/25 02:59:39;;;;;;;23.13;12.03;;;19.70;99.30;;;;;;4993842;28;20187;-74
2021/07/25 03:02:05;;;;;;;17.60;9.90;;;19.70;99.50;;;;;;4993596;28;20194;-75
2021/07/25 03:04:30;;;;;;;20.40;10.43;;;19.70;99.60;;;;;;4991093;28;20186;-75
2021/07/25 03:06:56;;;;;;;21.40;10.97;;;19.70;99.50;;;;;;4988793;28;20226;-75
2021/07/25 03:09:22;;;;;;;16.77;10.17;;;19.70;99.40;;;;;;4988136;28;20853;-75
2021/07/25 03:11:47;;;;;;;17.23;10.50;;;19.70;99.30;;;;;;4992970;28;20710;-75
2021/07/25 03:14:13;;;;;;;20.37;11.93;;;19.70;99.20;;;;;;4986553;28;20234;-75
2021/07/25 03:16:39;;;;;;;20.30;10.57;;;19.70;99.20;;;;;;4991568;28;20294;-75
2021/07/25 03:19:05;;;;;;;23.60;11.50;;;19.70;99.20;;;;;;4985504;28;20526;-74
2021/07/25 03:21:31;;;;;;;20.07;11.27;;;19.70;99.00;;;;;;4996474;28;20433;-76
2021/07/25 03:23:57;;;;;;;15.93;10.00;;;19.70;99.00;;;;;;4992122;28;20197;-75
2021/07/25 03:26:22;;;;;;;18.10;11.00;;;19.70;98.80;;;;;;4984632;28;20212;-74
2021/07/25 03:28:48;;;;;;;17.17;10.50;;;19.70;98.80;;;;;;4993077;28;20249;-75
2021/07/25 03:31:14;;;;;;;17.40;10.90;;;19.70;98.80;;;;;;4984579;28;20637;-75
2021/07/25 03:33:40;;;;;;;21.00;11.87;;;19.70;98.70;;;;;;4989679;28;20202;-75
2021/07/25 03:36:05;;;;;;;19.83;12.10;;;19.60;98.80;;;;;;4988276;28;20291;-76
2021/07/25 03:38:31;;;;;;;18.90;11.67;;;19.40;98.70;;;;;;4989750;28;20185;-77
2021/07/25 03:41:02;;;;;;;18.90;11.03;;;19.40;98.80;;;;;;4987706;28;20267;-76
2021/07/25 03:43:29;;;;;;;19.13;11.23;;;19.30;99.00;;;;;;4993230;28;20276;-75
2021/07/25 03:45:55;;;;;;;20.33;10.10;;;19.30;99.20;;;;;;4991930;28;20483;-74
2021/07/25 03:48:20;;;;;;;22.77;11.77;;;19.30;99.30;;;;;;4988338;28;20501;-76
2021/07/25 03:50:46;;;;;;;18.70;10.27;;;19.20;99.30;;;;;;4991627;28;20240;-75
2021/07/25 03:53:12;;;;;;;20.87;11.30;;;19.20;99.30;;;;;;4987215;28;20424;-75
2021/07/25 03:55:42;;;;;;;19.60;11.63;;;19.20;99.30;;;;;;4993038;28;20275;-75
2021/07/25 03:58:08;;;;;;;19.73;11.47;;;19.10;99.40;;;;;;4989575;28;20201;-76
2021/07/25 04:00:34;;;;;;;18.53;10.50;;;19.10;99.50;;;;;;5001888;28;20429;-75
2021/07/25 04:03:00;;;;;;;19.63;11.20;;;19.10;99.50;;;;;;5010645;28;20191;-75
2021/07/25 04:05:25;;;;;;;15.30;10.00;;;19.10;99.60;;;;;;4993249;28;20429;-75
2021/07/25 04:07:51;;;;;;;18.43;10.73;;;19.20;99.50;;;;;;4992535;28;20229;-74
2021/07/25 04:10:17;;;;;;;17.90;10.23;;;19.20;99.30;;;;;;4991280;28;20321;-75
2021/07/25 04:12:42;;;;;;;19.50;11.07;;;19.30;99.20;;;;;;4992039;28;20627;-75
2021/07/25 04:15:09;;;;;;;16.43;10.07;;;19.20;99.10;;;;;;4992869;28;20191;-75
2021/07/25 04:17:35;;;;;;;20.93;10.03;;;19.30;99.10;;;;;;4990364;28;20250;-75
2021/07/25 04:20:02;;;;;;;21.43;11.73;;;19.30;99.00;;;;;;4992809;28;20943;-76
2021/07/25 04:22:33;;;;;;;20.43;10.30;;;19.30;99.00;;;;;;4990305;28;20230;-74
2021/07/25 04:24:59;;;;;;;16.47;10.90;;;19.40;99.20;;;;;;4990690;28;20840;-75
2021/07/25 04:27:25;;;;;;;22.27;10.93;;;19.40;99.10;;;;;;4992123;28;20442;-75
2021/07/25 04:29:51;;;;;;;13.90;9.77;;;19.40;99.00;;;;;;4992852;28;20221;-75
2021/07/25 04:32:17;;;;;;;17.40;11.00;;;19.50;98.80;;;;;;4989982;28;20423;-74
2021/07/25 04:34:43;;;;;;;19.13;9.27;;;19.50;98.40;;;;;;4991947;28;20448;-75
2021/07/25 04:37:21;;;;;;;17.03;10.10;;;19.50;98.20;;;;;;4991080;28;20489;-75
2021/07/25 04:39:47;;;;;;;18.50;9.97;;;19.50;97.90;;;;;;4987409;28;20426;-74
2021/07/25 04:42:17;;;;;;;18.90;10.30;;;19.50;97.90;;;;;;4986968;28;20442;-75
2021/07/25 04:44:52;;;;;;;16.40;9.50;;;19.60;98.10;;;;;;4992114;28;20954;-74
2021/07/25 04:47:23;;;;;;;16.60;9.63;;;19.60;98.10;;;;;;4990155;28;20509;-75
2021/07/25 04:50:02;;;;;;;15.50;8.87;;;19.60;98.10;;;;;;4985281;28;20464;-75
2021/07/25 04:52:41;;;;;;;20.00;10.13;;;19.60;97.40;;;;;;4991565;28;20421;-74
2021/07/25 04:55:09;;;;;;;19.73;10.33;;;19.70;97.10;;;;;;4987671;28;20917;-75
2021/07/25 04:57:44;;;;;;;23.27;10.43;;;19.70;97.10;;;;;;4992861;28;20449;-75
2021/07/25 05:00:15;;;;;;;20.80;9.30;;;19.70;96.80;;;;;;4991932;28;20405;-75
2021/07/25 05:02:42;;;;;;;17.80;10.70;;;19.80;96.70;;;;;;4991934;28;20968;-75
2021/07/25 05:05:10;;;;;;;17.43;10.33;;;19.80;96.50;;;;;;4988465;28;20541;-74
2021/07/25 05:07:40;;;;;;;16.93;10.63;;;19.80;96.80;;;;;;4990717;28;20447;-75
2021/07/25 05:10:07;;;;;;;15.00;9.40;;;19.80;97.10;;;;;;4988323;28;20809;-75
2021/07/25 05:12:41;;;;;;;15.40;9.30;;;19.80;97.20;;;;;;4986204;28;20440;-75
2021/07/25 05:15:20;;;;;;;14.63;9.70;;;19.80;96.70;;;;;;4988425;28;20456;-74
2021/07/25 05:18:03;;;;;;;17.30;9.30;;;19.80;96.80;;;;;;4986354;28;20805;-74
2021/07/25 05:20:38;;;;;;;18.60;9.50;;;19.80;96.60;;;;;;4987260;28;20433;-74
2021/07/25 05:23:30;;;;;;;16.70;8.97;;;19.90;96.70;;;;;;4990611;28;20428;-75
2021/07/25 05:25:56;;;;;;;16.70;9.73;;;20.00;96.90;;;;;;4990455;28;20441;-75
2021/07/25 05:28:22;;;;;;;16.87;9.50;;;20.00;96.90;;;;;;4992220;28;20970;-75
2021/07/25 05:30:52;;;;;;;16.23;10.17;;;20.10;96.70;;;;;;4993351;28;20603;-75
2021/07/25 05:33:22;;;;;;;17.70;9.67;;;20.20;96.50;;;;;;4992389;28;20413;-75
2021/07/25 05:35:48;;;;;;;16.73;9.83;;;20.20;96.20;;;;;;4990966;28;20935;-75
2021/07/25 05:38:15;;;;;;;16.83;9.53;;;20.20;95.90;;;;;;4990707;28;20445;-75
2021/07/25 05:40:40;;;;;;;21.10;9.73;;;20.10;96.30;;;;;;4990699;28;20454;-76
2021/07/25 05:43:06;;;;;;;18.43;10.43;;;20.10;96.70;;;;;;4991034;28;20519;-76
2021/07/25 05:45:32;;;;;;;17.10;9.90;;;20.10;97.10;;;;;;4986638;28;20223;-75
2021/07/25 05:47:58;;;;;;;17.37;9.83;;;20.20;97.30;;;;;;4990797;28;20401;-75
2021/07/25 05:50:24;;;;;;;16.00;9.97;;;20.20;97.10;;;;;;4990142;28;20219;-73
2021/07/25 05:52:53;;;;;;;19.17;9.43;;;20.30;97.10;;;;;;4990522;28;20425;-74
2021/07/25 05:55:32;;;;;;;16.40;9.63;;;20.40;97.00;;;;;;4990559;28;20658;-77
2021/07/25 05:57:59;;;;;;;17.50;10.70;;;20.40;97.10;;;;;;4989550;28;20466;-76
2021/07/25 06:00:25;;;;;;;14.63;9.10;;;20.40;97.10;;;;;;4989478;28;20977;-76
2021/07/25 06:02:57;;;;;;;16.10;9.00;;;20.50;97.20;;;;;;4989379;28;20448;-76
2021/07/25 06:05:25;;;;;;;13.33;8.73;;;20.50;97.00;;;;;;4990892;28;20426;-74
2021/07/25 06:07:52;;;;;;;14.00;8.53;;;20.50;96.80;;;;;;4990263;28;20517;-75
2021/07/25 06:10:19;;;;;;;15.70;8.67;;;20.60;96.70;;;;;;4982344;28;20521;-76
2021/07/25 06:12:45;;;;;;;13.63;9.33;;;20.70;96.20;;;;;;4984365;28;20825;-75
2021/07/25 06:15:12;;;;;;;14.60;8.90;;;20.80;96.20;;;;;;4987132;28;20435;-74
2021/07/25 06:17:38;;;;;;;13.40;8.83;;;20.90;96.00;;;;;;4982313;28;20242;-75
2021/07/25 06:20:04;;;;;;;15.07;8.97;;;21.00;95.40;;;;;;4984593;28;20491;-76
2021/07/25 06:22:41;;;;;;;17.50;9.03;;;21.10;95.20;;;;;;4992568;28;20258;-75
2021/07/25 06:25:09;;;;;;;17.83;8.57;;;21.10;94.90;;;;;;5016232;28;20419;-74
2021/07/25 06:27:34;;;;;;;15.50;8.63;;;21.20;94.60;;;;;;4994727;28;20466;-75
2021/07/25 06:30:00;;;;;;;14.60;9.03;;;21.30;94.40;;;;;;4989279;28;20883;-76
2021/07/25 06:32:26;;;;;;;17.07;8.93;;;21.30;94.50;;;;;;4993526;28;20259;-74
2021/07/25 06:34:51;;;;;;;12.27;7.73;;;21.40;94.20;;;;;;4987999;28;20266;-75
2021/07/25 06:37:17;;;;;;;13.27;8.70;;;21.50;94.00;;;;;;4990831;28;20292;-76
2021/07/25 06:39:43;;;;;;;13.70;7.73;;;21.50;93.90;;;;;;4993466;28;20869;-76
2021/07/25 06:42:09;;;;;;;10.93;7.43;;;21.60;92.80;;;;;;4993245;28;20225;-76
2021/07/25 06:44:34;;;;;;;13.83;9.00;;;21.70;92.60;;;;;;4993859;28;20624;-77
2021/07/25 06:47:00;;;;;;;13.40;8.00;;;21.80;92.20;;;;;;4994385;28;20210;-76
2021/07/25 06:49:26;;;;;;;13.10;8.20;;;22.00;91.60;;;;;;4994933;28;20217;-75
2021/07/25 06:51:52;;;;;;;15.83;8.87;;;22.20;91.10;;;;;;4990871;28;20190;-76
2021/07/25 06:54:17;;;;;;;15.17;7.90;;;22.40;89.60;;;;;;4993586;28;20181;-75
2021/07/25 06:56:43;;;;;;;13.20;9.20;;;22.50;87.70;;;;;;4995584;28;20244;-78
2021/07/25 06:59:09;;;;;;;14.60;8.70;;;22.60;88.10;;;;;;4993338;28;20193;-76
2021/07/25 07:01:35;;;;;;;15.23;9.30;;;22.90;87.80;;;;;;4993975;28;20428;-76
2021/07/25 07:04:00;;;;;;;13.83;9.30;;;22.90;85.50;;;;;;4993995;28;20181;-75
2021/07/25 07:06:26;;;;;;;15.60;9.10;;;22.90;84.90;;;;;;4993389;28;20300;-75
2021/07/25 07:08:52;;;;;;;12.30;8.93;;;23.10;84.70;;;;;;4992996;28;20182;-75
2021/07/25 07:11:17;;;;;;;13.77;8.80;;;23.20;84.00;;;;;;4992232;28;20221;-76
2021/07/25 07:13:43;;;;;;;14.53;8.47;;;23.40;83.30;;;;;;4993685;28;20269;-75
2021/07/25 07:16:09;;;;;;;14.03;9.00;;;23.60;82.50;;;;;;4993119;28;20875;-78
2021/07/25 07:18:35;;;;;;;11.67;7.97;;;23.50;82.80;;;;;;4994640;28;20180;-75
2021/07/25 07:21:00;;;;;;;15.17;8.60;;;23.30;83.70;;;;;;4989434;28;20284;-75
2021/07/25 07:23:26;;;;;;;12.80;8.60;;;23.40;83.70;;;;;;4993116;28;20190;-76
2021/07/25 07:25:53;;;;;;;17.03;9.13;;;23.40;83.80;;;;;;4987716;28;20270;-76
2021/07/25 07:28:20;;;;;;;13.40;9.73;;;23.40;84.40;;;;;;4993157;28;20292;-78
2021/07/25 07:30:51;;;;;;;15.50;8.97;;;23.30;85.00;;;;;;4985105;28;20513;-78
2021/07/25 07:33:19;;;;;;;12.57;8.30;;;23.20;85.30;;;;;;4990304;28;20441;-79
2021/07/25 07:35:45;;;;;;;14.70;8.80;;;23.10;86.50;;;;;;4984874;28;20427;-77
2021/07/25 07:38:12;;;;;;;16.83;10.20;;;23.10;85.30;;;;;;4987598;28;20522;-78
2021/07/25 07:40:39;;;;;;;13.50;8.60;;;23.10;86.00;;;;;;4994790;28;20194;-77
2021/07/25 07:43:07;;;;;;;11.13;7.33;;;23.20;85.70;;;;;;4994933;28;21288;-77
2021/07/25 07:45:34;;;;;;;11.30;7.30;;;23.20;85.50;;;;;;4988108;28;20456;-78
2021/07/25 07:48:00;;;;;;;16.90;10.10;;;23.20;83.60;;;;;;4988901;28;20451;-78
2021/07/25 07:50:26;;;;;;;18.73;11.40;;;23.30;83.40;;;;;;4989468;28;20470;-79
2021/07/25 07:52:51;;;;;;;15.53;9.63;;;23.20;84.10;;;;;;4991500;28;20279;-78
2021/07/25 07:55:18;;;;;;;18.13;9.70;;;23.20;85.00;;;;;;4990945;28;20196;-77
2021/07/25 07:57:44;;;;;;;20.27;10.67;;;23.10;85.60;;;;;;4985100;28;20244;-77
2021/07/25 08:00:11;;;;;;;18.50;9.70;;;22.90;86.30;;;;;;4985947;28;21015;-79
2021/07/25 08:02:37;;;;;;;17.17;10.60;;;22.80;87.00;;;;;;4992636;28;20501;-78
2021/07/25 08:05:04;;;;;;;20.97;11.53;;;22.70;87.40;;;;;;4988199;28;20433;-80
2021/07/25 08:07:29;;;;;;;21.13;10.70;;;22.60;88.10;;;;;;4984532;28;20962;-78
2021/07/25 08:09:55;;;;;;;22.97;11.70;;;22.50;88.30;;;;;;4988990;28;20465;-77
2021/07/25 08:12:21;;;;;;;16.60;10.60;;;22.50;88.60;;;;;;4989457;28;20389;-78
2021/07/25 08:14:47;;;;;;;17.87;10.93;;;22.50;88.70;;;;;;4986862;28;20206;-78
2021/07/25 08:17:13;;;;;;;15.77;10.20;;;22.60;89.00;;;;;;4987176;28;20211;-78
2021/07/25 08:19:38;;;;;;;15.20;9.17;;;22.90;88.10;;;;;;4973424;28;20207;-77
2021/07/25 08:22:07;;;;;;;12.67;8.13;;;23.00;87.30;;;;;;4982053;28;21107;-78
2021/07/25 08:24:35;;;;;;;13.43;8.93;;;23.20;86.60;;;;;;4988725;28;20272;-77
2021/07/25 08:27:01;;;;;;;16.60;8.53;;;23.20;85.50;;;;;;4990502;28;20453;-78
2021/07/25 08:29:27;;;;;;;13.70;8.97;;;23.20;85.20;;;;;;4987633;28;20488;-77
2021/07/25 08:31:53;;;;;;;14.10;8.90;;;23.20;85.20;;;;;;4990164;28;20427;-77
2021/07/25 08:34:18;;;;;;;20.73;8.77;;;23.20;85.50;;;;;;4982332;28;20203;-78
2021/07/25 08:36:45;;;;;;;11.47;7.87;;;23.10;85.30;;;;;;4988737;28;20221;-78
2021/07/25 08:39:11;;;;;;;13.10;8.53;;;22.80;85.90;;;;;;4990878;28;20280;-78
2021/07/25 08:42:04;;;;;;;15.20;8.87;;;23.00;86.00;;;;;;4993625;28;20460;-79
2021/07/25 08:44:29;;;;;;;14.77;8.37;;;23.10;85.60;;;;;;4995881;28;20456;-78
2021/07/25 08:46:56;;;;;;;11.83;8.13;;;23.30;85.70;;;;;;4994687;28;20449;-78
2021/07/25 08:49:41;;;;;;;20.87;13.33;;;23.50;85.20;;;;;;4994589;28;20191;-78
2021/07/25 08:52:15;;;;;;;27.97;15.57;;;23.60;83.40;;;;;;5011415;28;20428;-78
2021/07/25 08:54:43;;;;;;;15.73;9.67;;;23.60;83.60;;;;;;4999798;28;20529;-79
2021/07/25 08:57:13;;;;;;;16.63;9.90;;;23.60;83.30;;;;;;4984057;28;21004;-77
2021/07/25 08:59:45;;;;;;;16.30;9.67;;;23.50;83.30;;;;;;4987569;28;20437;-78
2021/07/25 09:02:18;;;;;;;16.80;8.37;;;23.60;83.40;;;;;;4989967;28;20431;-78
2021/07/25 09:04:45;;;;;;;17.23;10.57;;;23.70;83.30;;;;;;4984194;28;20428;-80
2021/07/25 09:07:11;;;;;;;13.97;8.50;;;23.70;84.10;;;;;;4987521;28;20827;-77
2021/07/25 09:09:38;;;;;;;13.80;8.53;;;23.70;84.90;;;;;;4992146;28;20472;-77
2021/07/25 09:12:04;;;;;;;15.83;8.27;;;23.60;85.20;;;;;;4991165;28;20510;-76
2021/07/25 09:14:30;;;;;;;12.70;7.80;;;23.50;84.70;;;;;;4991004;28;20431;-76
2021/07/25 09:16:56;;;;;;;14.83;8.57;;;23.40;85.00;;;;;;4987735;28;20463;-75
2021/07/25 09:19:22;;;;;;;13.10;7.83;;;23.40;86.00;;;;;;4983008;28;20452;-77
2021/07/25 09:21:51;;;;;;;12.97;8.80;;;23.40;85.70;;;;;;4984987;28;20251;-76
2021/07/25 09:24:29;;;;;;;11.33;7.63;;;23.40;85.90;;;;;;4988535;28;20195;-76
2021/07/25 09:27:02;;;;;;;11.67;8.13;;;23.50;86.30;;;;;;4989283;28;20479;-77
2021/07/25 09:29:30;;;;;;;15.00;8.83;;;23.60;84.00;;;;;;4985168;28;20470;-76
2021/07/25 09:32:17;;;;;;;12.53;8.27;;;23.60;84.30;;;;;;4984008;28;20499;-76
2021/07/25 09:34:44;;;;;;;11.90;8.00;;;23.50;79.90;;;;;;4984117;28;20989;-76
2021/07/25 09:37:13;;;;;;;17.97;9.70;;;23.50;77.40;;;;;;4986078;28;20547;-76
2021/07/25 09:39:55;;;;;;;15.43;9.43;;;23.30;79.70;;;;;;4991580;28;21302;-77
2021/07/25 09:42:29;;;;;;;13.80;8.40;;;23.30;80.90;;;;;;4985904;28;21232;-77
2021/07/25 09:45:00;;;;;;;15.50;8.73;;;23.40;82.50;;;;;;4991154;28;20431;-78
2021/07/25 09:47:33;;;;;;;18.43;10.13;;;23.40;82.80;;;;;;4985314;28;20445;-77
2021/07/25 09:50:03;;;;;;;15.03;9.07;;;23.10;85.70;;;;;;4994669;28;20472;-79
2021/07/25 09:52:37;;;;;;;15.00;8.10;;;22.50;87.10;;;;;;4977646;28;20519;-76
2021/07/25 09:55:05;;;;;;;14.50;8.27;;;22.10;88.90;;;;;;4989524;28;20786;-76
2021/07/25 09:57:32;;;;;;;12.43;7.80;;;21.90;89.00;;;;;;4982722;28;20467;-76
2021/07/25 10:00:08;;;;;;;12.50;8.53;;;21.90;90.20;;;;;;4992592;28;20422;-76
2021/07/25 10:02:37;;;;;;;12.00;8.10;;;21.90;90.60;;;;;;4986903;28;21136;-76
2021/07/25 10:05:10;;;;;;;14.90;8.00;;;21.80;90.80;;;;;;4991740;28;20490;-78
2021/07/25 10:07:36;;;;;;;12.63;7.60;;;21.70;91.60;;;;;;4993832;28;20438;-76
2021/07/25 10:10:04;;;;;;;11.40;7.10;;;21.70;91.50;;;;;;4993647;28;20462;-77
2021/07/25 10:12:35;;;;;;;14.60;7.50;;;21.60;92.00;;;;;;4991604;28;20424;-76
2021/07/25 10:15:04;;;;;;;12.10;7.37;;;21.50;92.60;;;;;;4993486;28;20427;-77
2021/07/25 10:17:34;;;;;;;12.83;7.40;;;21.40;93.10;;;;;;4990665;28;20444;-76
2021/07/25 10:20:02;;;;;;;11.97;7.23;;;21.30;93.40;;;;;;4985213;28;20961;-77
2021/07/25 10:22:30;;;;;;;10.50;6.40;;;21.20;92.80;;;;;;4992974;28;20426;-77
2021/07/25 10:24:59;;;;;;;9.37;6.30;;;21.10;93.80;;;;;;4994323;28;20441;-78
2021/07/25 10:27:25;;;;;;;9.60;6.10;;;21.00;93.50;;;;;;4987949;28;20511;-76
2021/07/25 10:29:53;;;;;;;9.53;5.87;;;20.90;93.30;;;;;;4990083;28;20896;-77
2021/07/25 10:32:20;;;;;;;10.47;5.90;;;20.70;93.40;;;;;;4992509;28;20524;-77
2021/07/25 10:34:47;;;;;;;13.03;6.67;;;20.60;94.00;;;;;;4994409;28;20428;-77
2021/07/25 10:37:14;;;;;;;9.90;5.90;;;20.60;94.60;;;;;;4993048;28;20517;-77
2021/07/25 10:39:47;;;;;;;14.13;7.20;;;20.60;94.60;;;;;;4994240;28;20889;-77
2021/07/25 10:42:23;;;;;;;10.43;6.40;;;20.50;95.10;;;;;;4994001;28;20517;-78
2021/07/25 10:44:49;;;;;;;13.03;6.93;;;20.60;95.30;;;;;;4990558;28;20440;-78
2021/07/25 10:47:24;;;;;;;12.63;7.57;;;20.60;95.10;;;;;;4986924;28;20504;-76
2021/07/25 10:49:57;;;;;;;15.33;7.03;;;20.70;95.70;;;;;;4991922;28;20468;-76
2021/07/25 10:52:23;;;;;;;14.50;7.73;;;20.80;96.10;;;;;;4992451;28;20434;-75
2021/07/25 10:54:50;;;;;;;10.37;6.50;;;20.90;96.50;;;;;;4992052;28;20433;-74
2021/07/25 10:57:17;;;;;;;12.60;6.87;;;21.00;96.70;;;;;;4991710;28;20573;-75
2021/07/25 10:59:50;;;;;;;12.10;7.30;;;21.10;96.90;;;;;;4992562;28;21076;-75
2021/07/25 11:02:22;;;;;;;12.90;6.80;;;21.20;96.50;;;;;;4992292;28;20533;-74
2021/07/25 11:04:47;;;;;;;11.00;6.13;;;21.30;95.20;;;;;;4992432;28;20430;-74
2021/07/25 11:07:22;;;;;;;12.10;7.17;;;21.30;94.50;;;;;;4989883;28;20459;-75
2021/07/25 11:10:01;;;;;;;8.97;5.77;;;21.40;94.40;;;;;;4992151;28;20539;-75
2021/07/25 11:12:54;;;;;;;9.23;5.60;;;21.40;93.00;;;;;;4992513;28;20435;-74
2021/07/25 11:15:32;;;;;;;10.33;5.37;;;21.50;93.10;;;;;;4990544;28;20459;-77
2021/07/25 11:18:02;;;;;;;8.80;5.60;;;21.50;92.20;;;;;;4988189;28;20455;-77
2021/07/25 11:20:56;;;;;;;9.20;5.80;;;21.50;91.60;;;;;;4992775;28;21137;-77
2021/07/25 11:23:22;;;;;;;8.43;5.57;;;21.70;92.30;;;;;;4990865;28;20437;-76
2021/07/25 11:25:49;;;;;;;7.20;5.23;;;21.80;90.30;;;;;;4981768;28;20511;-77
2021/07/25 11:28:37;;;;;;;9.80;5.70;;;21.70;90.10;;;;;;4988147;28;20215;-76
2021/07/25 11:31:03;;;;;;;10.70;5.90;;;21.50;90.50;;;;;;5000947;28;20562;-76
2021/07/25 11:33:52;;;;;;;7.60;5.73;;;21.40;91.70;;;;;;4984744;28;20516;-75
2021/07/25 11:36:23;;;;;;;9.57;6.60;;;21.40;91.90;;;;;;4990592;28;20221;-75
2021/07/25 11:38:59;;;;;;;14.13;7.70;;;21.30;92.40;;;;;;4991751;28;20976;-75
2021/07/25 11:41:33;;;;;;;12.70;7.67;;;21.20;92.20;;;;;;4992381;28;20422;-77
2021/07/25 11:44:00;;;;;;;17.20;10.03;;;21.30;92.80;;;;;;4989634;28;20533;-76
2021/07/25 11:46:27;;;;;;;12.50;7.57;;;21.40;92.70;;;;;;4992206;28;20450;-76
2021/07/25 11:49:16;;;;;;;16.50;8.03;;;21.60;92.80;;;;;;4991701;28;20424;-73
2021/07/25 11:51:55;;;;;;;12.80;6.93;;;21.70;92.10;;;;;;4990059;28;20432;-74
2021/07/25 11:54:24;;;;;;;10.20;7.13;;;21.70;89.70;;;;;;4991027;28;20420;-74
2021/07/25 11:56:59;;;;;;;12.40;8.23;;;21.70;90.30;;;;;;4980603;28;21233;-74
2021/07/25 11:59:26;;;;;;;12.60;7.23;;;21.70;90.80;;;;;;4990495;28;20546;-74
2021/07/25 12:01:52;;;;;;;12.93;8.23;;;21.70;90.60;;;;;;4984463;28;20435;-74
2021/07/25 12:04:29;;;;;;;13.30;8.60;;;21.70;90.80;;;;;;4989125;28;20880;-76
2021/07/25 12:06:58;;;;;;;12.40;8.57;;;21.80;91.00;;;;;;4988827;28;20845;-75
2021/07/25 12:09:23;;;;;;;13.47;8.20;;;21.60;90.80;;;;;;4983561;28;20908;-74
2021/07/25 12:11:58;;;;;;;14.13;7.90;;;21.50;90.70;;;;;;4990470;28;20514;-75
2021/07/25 12:14:32;;;;;;;13.87;8.70;;;21.40;91.70;;;;;;4989934;28;20207;-74
2021/07/25 12:16:58;;;;;;;14.77;8.33;;;21.50;92.00;;;;;;4988617;28;20518;-76
2021/07/25 12:19:24;;;;;;;12.07;7.37;;;21.50;91.70;;;;;;4980195;28;20431;-75
2021/07/25 12:22:07;;;;;;;15.67;8.20;;;21.50;91.50;;;;;;4989793;28;20506;-73
2021/07/25 12:24:34;;;;;;;14.60;7.80;;;21.40;91.40;;;;;;4982921;28;20407;-74
2021/07/25 12:27:02;;;;;;;14.03;7.83;;;21.40;91.30;;;;;;4990078;28;20525;-75
2021/07/25 12:29:42;;;;;;;12.30;7.83;;;21.30;91.70;;;;;;4991189;28;20411;-74
2021/07/25 12:32:24;;;;;;;14.47;7.23;;;21.30;92.00;;;;;;4993981;28;20485;-76
2021/07/25 12:35:08;;;;;;;14.50;8.30;;;21.30;92.20;;;;;;4988798;28;20832;-74
2021/07/25 12:37:41;;;;;;;12.90;7.30;;;21.40;93.20;;;;;;4981204;28;20436;-72
2021/07/25 12:40:10;;;;;;;14.50;7.60;;;21.30;91.70;;;;;;4990634;28;20953;-74
2021/07/25 12:42:41;;;;;;;12.57;6.93;;;21.10;91.80;;;;;;4990932;28;20429;-73